KLGU/LGU METAR and TAF weather

Enter ICAO airport designator
Station Type Date Time Source
KLGU METAR 2020/04/06 18:51 UTC NOAA

KLGU 061851Z AUTO 33004KT 10SM SCT037 BKN049 OVC075 12/04 A2985 RMK AO2 RAB28E37 SLP086 P0000 T01220044


Station Type Date Time Source
KLGU Decoded METAR 2020/04/06 18:51 UTC NOAA

LOGAN CACHE AIRPORT, UT, United States (KLGU) 41-47N 111-51W 1355M
Apr 06, 2020 - 02:51 PM EDT / 2020.04.06 1851 UTC
Wind: from the NNW (330 degrees) at 5 MPH (4 KT):0
Visibility: 10 mile(s):0
Sky conditions: overcast
Precipitation last hour: A trace
Temperature: 54.0 F (12.2 C)
Dew Point: 39.9 F (4.4 C)
Relative Humidity: 58%
Pressure (altimeter): 29.85 in. Hg (1010 hPa)
ob: KLGU 061851Z AUTO 33004KT 10SM SCT037 BKN049 OVC075 12/04 A2985 RMK AO2 RAB28E37 SLP086 P0000 T01220044
cycle: 19

Station Type Date Time Source
KLGU TAF 2020/04/06 18:40 UTC NOAA

TAF KLGU 061737Z 0618/0718 35008KT P6SM -SHRA SCT040 BKN060 OVC080
FM062000 21015G25KT P6SM VCSH SCT040 BKN080
FM070200 18008KT P6SM VCSH SCT040 SCT080

Example: see airport list